sensor_id;sensor_type;location;lat;lon;timestamp;pressure;altitude;pressure_sealevel;temperature;humidity
69219;BME280;56232;53.384;-2.732;2023-05-03T00:00:46;102367.06;;;10.29;34.70
69219;BME280;56232;53.384;-2.732;2023-05-03T00:03:12;102363.71;;;9.78;35.33
69219;BME280;56232;53.384;-2.732;2023-05-03T00:05:37;102360.25;;;10.88;35.51
69219;BME280;56232;53.384;-2.732;2023-05-03T00:08:03;102356.22;;;10.30;35.09
69219;BME280;56232;53.384;-2.732;2023-05-03T00:10:29;102353.32;;;10.80;35.02
69219;BME280;56232;53.384;-2.732;2023-05-03T00:12:54;102345.83;;;10.77;34.32
69219;BME280;56232;53.384;-2.732;2023-05-03T00:15:20;102344.88;;;10.33;34.62
69219;BME280;56232;53.384;-2.732;2023-05-03T00:17:45;102347.76;;;10.95;34.13
69219;BME280;56232;53.384;-2.732;2023-05-03T00:20:11;102351.92;;;10.52;34.58
69219;BME280;56232;53.384;-2.732;2023-05-03T00:22:37;102352.90;;;11.10;34.49
69219;BME280;56232;53.384;-2.732;2023-05-03T00:25:02;102358.34;;;11.29;34.37
69219;BME280;56232;53.384;-2.732;2023-05-03T00:27:27;102358.67;;;10.96;34.03
69219;BME280;56232;53.384;-2.732;2023-05-03T00:29:53;102363.79;;;11.12;34.36
69219;BME280;56232;53.384;-2.732;2023-05-03T00:32:19;102365.78;;;11.12;33.97
69219;BME280;56232;53.384;-2.732;2023-05-03T00:34:45;102360.01;;;11.33;34.03
69219;BME280;56232;53.384;-2.732;2023-05-03T00:37:10;102358.99;;;11.47;33.82
69219;BME280;56232;53.384;-2.732;2023-05-03T00:39:36;102358.94;;;10.48;33.83
69219;BME280;56232;53.384;-2.732;2023-05-03T00:42:02;102355.97;;;11.60;33.93
69219;BME280;56232;53.384;-2.732;2023-05-03T00:44:27;102354.65;;;11.07;34.07
69219;BME280;56232;53.384;-2.732;2023-05-03T00:46:53;102348.94;;;10.67;33.04
69219;BME280;56232;53.384;-2.732;2023-05-03T00:49:18;102345.78;;;11.80;33.84
69219;BME280;56232;53.384;-2.732;2023-05-03T00:51:44;102339.70;;;11.66;33.82
69219;BME280;56232;53.384;-2.732;2023-05-03T00:54:10;102338.06;;;11.74;32.76
69219;BME280;56232;53.384;-2.732;2023-05-03T00:56:36;102338.84;;;11.78;33.12
69219;BME280;56232;53.384;-2.732;2023-05-03T00:59:00;102335.13;;;11.07;34.20
69219;BME280;56232;53.384;-2.732;2023-05-03T01:01:26;102327.19;;;11.40;34.58
69219;BME280;56232;53.384;-2.732;2023-05-03T01:03:51;102324.51;;;11.12;34.38
69219;BME280;56232;53.384;-2.732;2023-05-03T01:06:24;102320.82;;;11.37;34.24
69219;BME280;56232;53.384;-2.732;2023-05-03T01:08:46;102321.94;;;10.62;34.35
69219;BME280;56232;53.384;-2.732;2023-05-03T01:11:13;102315.81;;;11.03;34.24
69219;BME280;56232;53.384;-2.732;2023-05-03T01:13:39;102310.97;;;10.83;33.68
69219;BME280;56232;53.384;-2.732;2023-05-03T01:16:05;102310.09;;;10.35;33.38
69219;BME280;56232;53.384;-2.732;2023-05-03T01:18:28;102309.71;;;10.83;34.52
69219;BME280;56232;53.384;-2.732;2023-05-03T01:20:52;102301.44;;;10.23;34.83
69219;BME280;56232;53.384;-2.732;2023-05-03T01:23:27;102296.35;;;10.25;34.84
69219;BME280;56232;53.384;-2.732;2023-05-03T01:25:42;102293.64;;;10.70;34.34
69219;BME280;56232;53.384;-2.732;2023-05-03T01:28:07;102300.26;;;10.66;34.64
69219;BME280;56232;53.384;-2.732;2023-05-03T01:30:33;102297.97;;;10.71;35.47
69219;BME280;56232;53.384;-2.732;2023-05-03T01:33:02;102297.81;;;10.21;34.97
69219;BME280;56232;53.384;-2.732;2023-05-03T01:35:28;102295.48;;;9.99;35.72
69219;BME280;56232;53.384;-2.732;2023-05-03T01:37:50;102293.98;;;11.00;34.67
69219;BME280;56232;53.384;-2.732;2023-05-03T01:40:16;102293.41;;;10.37;35.40
69219;BME280;56232;53.384;-2.732;2023-05-03T01:42:41;102292.56;;;11.04;35.28
69219;BME280;56232;53.384;-2.732;2023-05-03T01:45:06;102294.00;;;10.75;35.76
69219;BME280;56232;53.384;-2.732;2023-05-03T01:47:31;102297.50;;;10.71;34.68
69219;BME280;56232;53.384;-2.732;2023-05-03T01:49:58;102302.07;;;10.19;35.40
69219;BME280;56232;53.384;-2.732;2023-05-03T01:52:22;102302.42;;;9.74;35.23
69219;BME280;56232;53.384;-2.732;2023-05-03T01:54:48;102300.14;;;10.30;35.32
69219;BME280;56232;53.384;-2.732;2023-05-03T01:57:13;102299.05;;;10.93;35.83
69219;BME280;56232;53.384;-2.732;2023-05-03T01:59:39;102293.40;;;9.79;35.97
69219;BME280;56232;53.384;-2.732;2023-05-03T02:02:04;102294.54;;;9.76;36.24
69219;BME280;56232;53.384;-2.732;2023-05-03T02:04:29;102290.61;;;10.31;36.03
69219;BME280;56232;53.384;-2.732;2023-05-03T02:06:55;102292.33;;;9.93;35.77
69219;BME280;56232;53.384;-2.732;2023-05-03T02:09:21;102295.84;;;9.93;35.03
69219;BME280;56232;53.384;-2.732;2023-05-03T02:11:46;102295.53;;;10.37;35.77
69219;BME280;56232;53.384;-2.732;2023-05-03T02:14:12;102295.66;;;10.96;35.79
69219;BME280;56232;53.384;-2.732;2023-05-03T02:16:37;102301.53;;;10.52;35.52
69219;BME280;56232;53.384;-2.732;2023-05-03T02:19:03;102308.13;;;9.92;35.65
69219;BME280;56232;53.384;-2.732;2023-05-03T02:21:28;102311.52;;;9.79;36.15
69219;BME280;56232;53.384;-2.732;2023-05-03T02:23:53;102310.39;;;9.65;36.24
69219;BME280;56232;53.384;-2.732;2023-05-03T02:26:19;102310.92;;;10.72;36.19
69219;BME280;56232;53.384;-2.732;2023-05-03T02:28:44;102311.54;;;10.23;35.69
69219;BME280;56232;53.384;-2.732;2023-05-03T02:31:10;102313.76;;;10.91;35.37
69219;BME280;56232;53.384;-2.732;2023-05-03T02:33:35;102311.21;;;9.70;35.50
69219;BME280;56232;53.384;-2.732;2023-05-03T02:36:00;102312.01;;;10.86;35.58
69219;BME280;56232;53.384;-2.732;2023-05-03T02:38:25;102316.42;;;9.60;35.82
69219;BME280;56232;53.384;-2.732;2023-05-03T02:40:50;102319.35;;;10.66;35.63
69219;BME280;56232;53.384;-2.732;2023-05-03T02:43:16;102317.26;;;10.68;34.92
69219;BME280;56232;53.384;-2.732;2023-05-03T02:45:42;102320.26;;;10.05;35.91
69219;BME280;56232;53.384;-2.732;2023-05-03T02:48:07;102320.55;;;9.40;36.13
69219;BME280;56232;53.384;-2.732;2023-05-03T02:50:33;102320.78;;;10.36;35.79
69219;BME280;56232;53.384;-2.732;2023-05-03T02:52:59;102318.07;;;9.92;35.43
69219;BME280;56232;53.384;-2.732;2023-05-03T02:55:23;102317.32;;;10.16;34.10
69219;BME280;56232;53.384;-2.732;2023-05-03T02:57:49;102312.87;;;10.80;34.83
69219;BME280;56232;53.384;-2.732;2023-05-03T03:00:15;102311.55;;;10.05;35.29
69219;BME280;56232;53.384;-2.732;2023-05-03T03:02:40;102312.73;;;10.57;34.91
69219;BME280;56232;53.384;-2.732;2023-05-03T03:05:06;102311.18;;;9.96;34.96
69219;BME280;56232;53.384;-2.732;2023-05-03T03:07:31;102309.81;;;10.66;35.26
69219;BME280;56232;53.384;-2.732;2023-05-03T03:09:57;102308.18;;;10.52;34.90
69219;BME280;56232;53.384;-2.732;2023-05-03T03:12:21;102310.37;;;10.48;35.11
69219;BME280;56232;53.384;-2.732;2023-05-03T03:14:46;102306.58;;;9.81;35.40
69219;BME280;56232;53.384;-2.732;2023-05-03T03:17:12;102306.45;;;10.26;35.39
69219;BME280;56232;53.384;-2.732;2023-05-03T03:19:37;102301.76;;;9.99;34.89
69219;BME280;56232;53.384;-2.732;2023-05-03T03:22:03;102299.19;;;10.00;34.44
69219;BME280;56232;53.384;-2.732;2023-05-03T03:24:29;102300.46;;;9.94;35.65
69219;BME280;56232;53.384;-2.732;2023-05-03T03:26:54;102304.44;;;9.87;36.14
69219;BME280;56232;53.384;-2.732;2023-05-03T03:29:20;102302.77;;;9.63;36.50
69219;BME280;56232;53.384;-2.732;2023-05-03T03:31:45;102303.54;;;10.07;35.73
69219;BME280;56232;53.384;-2.732;2023-05-03T03:34:11;102301.62;;;9.45;35.29
69219;BME280;56232;53.384;-2.732;2023-05-03T03:36:37;102299.86;;;9.33;36.06
69219;BME280;56232;53.384;-2.732;2023-05-03T03:39:02;102298.95;;;9.27;36.75
69219;BME280;56232;53.384;-2.732;2023-05-03T03:41:27;102296.93;;;8.48;36.36
69219;BME280;56232;53.384;-2.732;2023-05-03T03:43:52;102295.17;;;8.81;36.85
69219;BME280;56232;53.384;-2.732;2023-05-03T03:46:18;102292.09;;;8.58;37.24
69219;BME280;56232;53.384;-2.732;2023-05-03T03:48:43;102289.82;;;9.04;36.88
69219;BME280;56232;53.384;-2.732;2023-05-03T03:51:08;102286.99;;;8.51;36.92
69219;BME280;56232;53.384;-2.732;2023-05-03T03:53:34;102286.58;;;8.57;36.48
69219;BME280;56232;53.384;-2.732;2023-05-03T03:56:00;102283.96;;;9.51;36.77
69219;BME280;56232;53.384;-2.732;2023-05-03T03:58:25;102281.97;;;9.43;36.84
69219;BME280;56232;53.384;-2.732;2023-05-03T04:00:50;102279.89;;;8.16;36.36
69219;BME280;56232;53.384;-2.732;2023-05-03T04:03:16;102275.61;;;9.09;37.44
69219;BME280;56232;53.384;-2.732;2023-05-03T04:05:41;102274.69;;;9.02;37.51
69219;BME280;56232;53.384;-2.732;2023-05-03T04:08:06;102272.93;;;8.92;37.23
69219;BME280;56232;53.384;-2.732;2023-05-03T04:10:31;102276.58;;;9.36;36.92
69219;BME280;56232;53.384;-2.732;2023-05-03T04:12:58;102275.89;;;8.79;36.85
69219;BME280;56232;53.384;-2.732;2023-05-03T04:15:23;102274.98;;;8.77;37.20
69219;BME280;56232;53.384;-2.732;2023-05-03T04:17:48;102280.69;;;9.68;37.33
69219;BME280;56232;53.384;-2.732;2023-05-03T04:20:14;102279.45;;;8.73;37.21
69219;BME280;56232;53.384;-2.732;2023-05-03T04:22:40;102278.74;;;8.74;37.33
69219;BME280;56232;53.384;-2.732;2023-05-03T04:25:09;102278.28;;;8.69;37.26
69219;BME280;56232;53.384;-2.732;2023-05-03T04:27:31;102279.75;;;8.73;37.55
69219;BME280;56232;53.384;-2.732;2023-05-03T04:29:58;102278.57;;;8.74;37.70
69219;BME280;56232;53.384;-2.732;2023-05-03T04:32:22;102282.73;;;8.79;37.44
69219;BME280;56232;53.384;-2.732;2023-05-03T04:34:48;102283.95;;;8.87;36.91
69219;BME280;56232;53.384;-2.732;2023-05-03T04:37:13;102287.37;;;8.30;36.22
69219;BME280;56232;53.384;-2.732;2023-05-03T04:39:38;102289.39;;;9.01;36.35
69219;BME280;56232;53.384;-2.732;2023-05-03T04:42:04;102295.51;;;9.20;36.42
69219;BME280;56232;53.384;-2.732;2023-05-03T04:44:29;102295.89;;;9.40;36.06
69219;BME280;56232;53.384;-2.732;2023-05-03T04:46:54;102298.88;;;8.98;36.63
69219;BME280;56232;53.384;-2.732;2023-05-03T04:49:19;102298.58;;;9.25;37.06
69219;BME280;56232;53.384;-2.732;2023-05-03T04:51:45;102300.22;;;9.53;36.78
69219;BME280;56232;53.384;-2.732;2023-05-03T04:54:10;102302.76;;;9.65;36.59
69219;BME280;56232;53.384;-2.732;2023-05-03T04:56:35;102303.11;;;9.76;35.23
69219;BME280;56232;53.384;-2.732;2023-05-03T04:59:01;102306.05;;;9.38;35.70
69219;BME280;56232;53.384;-2.732;2023-05-03T05:01:26;102307.71;;;9.63;35.15
69219;BME280;56232;53.384;-2.732;2023-05-03T05:03:52;102310.44;;;9.92;35.05
69219;BME280;56232;53.384;-2.732;2023-05-03T05:06:17;102313.89;;;9.63;34.67
69219;BME280;56232;53.384;-2.732;2023-05-03T05:08:43;102316.68;;;10.34;34.87
69219;BME280;56232;53.384;-2.732;2023-05-03T05:11:08;102313.93;;;10.34;34.95
69219;BME280;56232;53.384;-2.732;2023-05-03T05:13:34;102315.97;;;10.34;34.15
69219;BME280;56232;53.384;-2.732;2023-05-03T05:15:59;102317.21;;;10.23;35.00
69219;BME280;56232;53.384;-2.732;2023-05-03T05:18:24;102319.73;;;10.22;34.75
69219;BME280;56232;53.384;-2.732;2023-05-03T05:20:50;102320.70;;;10.06;34.84
69219;BME280;56232;53.384;-2.732;2023-05-03T05:23:15;102320.41;;;10.15;34.14
69219;BME280;56232;53.384;-2.732;2023-05-03T05:25:41;102319.92;;;9.43;33.46
69219;BME280;56232;53.384;-2.732;2023-05-03T05:28:08;102319.91;;;9.42;34.24
69219;BME280;56232;53.384;-2.732;2023-05-03T05:30:32;102322.67;;;10.08;34.66
69219;BME280;56232;53.384;-2.732;2023-05-03T05:32:59;102327.73;;;9.72;34.13
69219;BME280;56232;53.384;-2.732;2023-05-03T05:35:23;102329.19;;;10.51;33.95
69219;BME280;56232;53.384;-2.732;2023-05-03T05:37:49;102331.93;;;10.44;33.80
69219;BME280;56232;53.384;-2.732;2023-05-03T05:40:15;102330.71;;;10.33;34.04
69219;BME280;56232;53.384;-2.732;2023-05-03T05:42:40;102329.22;;;10.51;33.86
69219;BME280;56232;53.384;-2.732;2023-05-03T05:45:06;102326.29;;;10.26;32.60
69219;BME280;56232;53.384;-2.732;2023-05-03T05:47:30;102326.15;;;10.63;31.96
69219;BME280;56232;53.384;-2.732;2023-05-03T05:49:56;102322.78;;;10.67;31.91
69219;BME280;56232;53.384;-2.732;2023-05-03T05:52:21;102316.63;;;12.61;30.66
69219;BME280;56232;53.384;-2.732;2023-05-03T05:54:47;102323.12;;;12.27;30.28
69219;BME280;56232;53.384;-2.732;2023-05-03T05:57:12;102326.53;;;13.27;30.30
69219;BME280;56232;53.384;-2.732;2023-05-03T05:59:38;102325.18;;;15.25;28.26
69219;BME280;56232;53.384;-2.732;2023-05-03T06:02:05;102327.22;;;16.47;26.77
69219;BME280;56232;53.384;-2.732;2023-05-03T06:04:30;102325.82;;;18.62;25.23
69219;BME280;56232;53.384;-2.732;2023-05-03T06:06:55;102323.86;;;20.94;23.93
69219;BME280;56232;53.384;-2.732;2023-05-03T06:09:21;102326.18;;;21.64;22.13
69219;BME280;56232;53.384;-2.732;2023-05-03T06:11:47;102330.22;;;22.05;21.23
69219;BME280;56232;53.384;-2.732;2023-05-03T06:14:12;102331.11;;;21.29;20.78
69219;BME280;56232;53.384;-2.732;2023-05-03T06:16:38;102328.54;;;22.57;20.57
69219;BME280;56232;53.384;-2.732;2023-05-03T06:19:03;102332.36;;;22.89;19.42
69219;BME280;56232;53.384;-2.732;2023-05-03T06:21:29;102331.43;;;24.14;18.54
69219;BME280;56232;53.384;-2.732;2023-05-03T06:23:54;102325.84;;;24.39;18.00
69219;BME280;56232;53.384;-2.732;2023-05-03T06:26:20;102321.70;;;24.52;18.11
69219;BME280;56232;53.384;-2.732;2023-05-03T06:28:46;102327.90;;;25.81;17.69
69219;BME280;56232;53.384;-2.732;2023-05-03T06:31:11;102330.52;;;26.09;16.84
69219;BME280;56232;53.384;-2.732;2023-05-03T06:33:36;102328.10;;;27.08;16.12
69219;BME280;56232;53.384;-2.732;2023-05-03T06:36:02;102327.93;;;26.81;16.06
69219;BME280;56232;53.384;-2.732;2023-05-03T06:38:28;102325.47;;;26.21;16.09
69219;BME280;56232;53.384;-2.732;2023-05-03T06:40:53;102326.21;;;26.99;15.53
69219;BME280;56232;53.384;-2.732;2023-05-03T06:43:19;102332.39;;;27.76;14.90
69219;BME280;56232;53.384;-2.732;2023-05-03T06:45:44;102327.88;;;26.80;15.00
69219;BME280;56232;53.384;-2.732;2023-05-03T06:48:10;102326.77;;;26.53;15.27
69219;BME280;56232;53.384;-2.732;2023-05-03T06:50:35;102332.89;;;25.11;15.53
69219;BME280;56232;53.384;-2.732;2023-05-03T06:53:01;102330.69;;;25.73;15.68
69219;BME280;56232;53.384;-2.732;2023-05-03T06:55:26;102333.09;;;25.40;15.66
69219;BME280;56232;53.384;-2.732;2023-05-03T06:57:52;102327.43;;;26.26;15.50
69219;BME280;56232;53.384;-2.732;2023-05-03T07:00:18;102327.55;;;27.31;14.87
69219;BME280;56232;53.384;-2.732;2023-05-03T07:02:43;102326.55;;;27.39;14.66
69219;BME280;56232;53.384;-2.732;2023-05-03T07:05:09;102326.09;;;27.37;14.78
69219;BME280;56232;53.384;-2.732;2023-05-03T07:07:35;102321.81;;;27.68;14.60
69219;BME280;56232;53.384;-2.732;2023-05-03T07:10:00;102326.04;;;28.58;14.46
69219;BME280;56232;53.384;-2.732;2023-05-03T07:12:25;102327.87;;;27.93;13.89
69219;BME280;56232;53.384;-2.732;2023-05-03T07:14:50;102325.94;;;28.28;13.60
69219;BME280;56232;53.384;-2.732;2023-05-03T07:17:16;102327.57;;;29.31;13.93
69219;BME280;56232;53.384;-2.732;2023-05-03T07:19:42;102326.22;;;29.62;13.60
69219;BME280;56232;53.384;-2.732;2023-05-03T07:22:07;102329.12;;;30.08;13.34
69219;BME280;56232;53.384;-2.732;2023-05-03T07:24:33;102335.44;;;29.44;13.19
69219;BME280;56232;53.384;-2.732;2023-05-03T07:26:59;102340.03;;;29.82;13.04
69219;BME280;56232;53.384;-2.732;2023-05-03T07:29:24;102339.70;;;28.92;12.74
69219;BME280;56232;53.384;-2.732;2023-05-03T07:31:50;102340.08;;;29.62;12.55
69219;BME280;56232;53.384;-2.732;2023-05-03T07:34:15;102336.18;;;28.33;12.84
69219;BME280;56232;53.384;-2.732;2023-05-03T07:36:41;102339.42;;;30.19;12.50
69219;BME280;56232;53.384;-2.732;2023-05-03T07:39:06;102338.03;;;30.10;12.56
69219;BME280;56232;53.384;-2.732;2023-05-03T07:41:31;102340.02;;;29.99;12.50
69219;BME280;56232;53.384;-2.732;2023-05-03T07:44:03;102336.01;;;29.11;12.95
69219;BME280;56232;53.384;-2.732;2023-05-03T07:46:23;102337.33;;;29.47;12.55
69219;BME280;56232;53.384;-2.732;2023-05-03T07:48:53;102330.94;;;28.83;13.17
69219;BME280;56232;53.384;-2.732;2023-05-03T07:51:14;102329.08;;;28.95;12.90
69219;BME280;56232;53.384;-2.732;2023-05-03T07:53:39;102326.29;;;28.25;13.10
69219;BME280;56232;53.384;-2.732;2023-05-03T07:56:05;102331.55;;;29.41;12.87
69219;BME280;56232;53.384;-2.732;2023-05-03T07:58:30;102330.07;;;29.91;12.05
69219;BME280;56232;53.384;-2.732;2023-05-03T08:00:56;102324.91;;;29.46;12.81
69219;BME280;56232;53.384;-2.732;2023-05-03T08:03:21;102327.61;;;30.53;12.38
69219;BME280;56232;53.384;-2.732;2023-05-03T08:05:47;102321.37;;;30.70;12.26
69219;BME280;56232;53.384;-2.732;2023-05-03T08:08:12;102316.58;;;29.29;12.49
69219;BME280;56232;53.384;-2.732;2023-05-03T08:10:38;102319.93;;;28.65;13.25
69219;BME280;56232;53.384;-2.732;2023-05-03T08:13:04;102313.24;;;28.50;13.32
69219;BME280;56232;53.384;-2.732;2023-05-03T08:15:29;102311.02;;;28.52;13.27
69219;BME280;56232;53.384;-2.732;2023-05-03T08:17:54;102307.76;;;27.15;14.73
69219;BME280;56232;53.384;-2.732;2023-05-03T08:20:20;102308.52;;;26.48;14.25
69219;BME280;56232;53.384;-2.732;2023-05-03T08:22:46;102305.77;;;26.58;14.60
69219;BME280;56232;53.384;-2.732;2023-05-03T08:25:11;102302.95;;;27.20;14.63
69219;BME280;56232;53.384;-2.732;2023-05-03T08:27:37;102300.63;;;27.71;14.23
69219;BME280;56232;53.384;-2.732;2023-05-03T08:30:03;102302.53;;;26.87;13.92
69219;BME280;56232;53.384;-2.732;2023-05-03T08:32:28;102297.32;;;26.04;14.08
69219;BME280;56232;53.384;-2.732;2023-05-03T08:34:54;102298.99;;;27.76;14.31
69219;BME280;56232;53.384;-2.732;2023-05-03T08:37:19;102297.72;;;27.65;14.29
69219;BME280;56232;53.384;-2.732;2023-05-03T08:39:45;102293.08;;;28.21;13.91
69219;BME280;56232;53.384;-2.732;2023-05-03T08:42:10;102297.47;;;29.07;13.10
69219;BME280;56232;53.384;-2.732;2023-05-03T08:44:36;102292.26;;;28.52;13.69
69219;BME280;56232;53.384;-2.732;2023-05-03T08:47:02;102296.05;;;26.67;14.65
69219;BME280;56232;53.384;-2.732;2023-05-03T08:49:27;102296.44;;;27.11;14.96
69219;BME280;56232;53.384;-2.732;2023-05-03T08:51:53;102299.72;;;26.87;14.56
69219;BME280;56232;53.384;-2.732;2023-05-03T08:54:18;102303.95;;;26.37;15.25
69219;BME280;56232;53.384;-2.732;2023-05-03T08:56:43;102300.24;;;25.75;15.97
69219;BME280;56232;53.384;-2.732;2023-05-03T08:59:09;102305.61;;;24.41;16.43
69219;BME280;56232;53.384;-2.732;2023-05-03T09:01:35;102308.21;;;24.17;15.60
69219;BME280;56232;53.384;-2.732;2023-05-03T09:04:00;102303.43;;;25.28;16.04
69219;BME280;56232;53.384;-2.732;2023-05-03T09:06:26;102310.24;;;24.33;16.37
69219;BME280;56232;53.384;-2.732;2023-05-03T09:08:51;102300.74;;;25.24;17.01
69219;BME280;56232;53.384;-2.732;2023-05-03T09:11:20;102297.92;;;26.61;16.25
69219;BME280;56232;53.384;-2.732;2023-05-03T09:13:42;102294.26;;;26.83;15.10
69219;BME280;56232;53.384;-2.732;2023-05-03T09:16:22;102295.98;;;26.88;14.93
69219;BME280;56232;53.384;-2.732;2023-05-03T09:18:33;102290.22;;;26.41;15.05
69219;BME280;56232;53.384;-2.732;2023-05-03T09:20:59;102286.69;;;26.44;14.80
69219;BME280;56232;53.384;-2.732;2023-05-03T09:23:29;102286.81;;;25.97;14.48
69219;BME280;56232;53.384;-2.732;2023-05-03T09:25:50;102292.85;;;26.57;14.67
69219;BME280;56232;53.384;-2.732;2023-05-03T09:28:16;102297.12;;;26.86;15.10
69219;BME280;56232;53.384;-2.732;2023-05-03T09:30:41;102294.39;;;27.61;14.35
69219;BME280;56232;53.384;-2.732;2023-05-03T09:33:07;102294.52;;;27.30;14.19
69219;BME280;56232;53.384;-2.732;2023-05-03T09:35:32;102293.17;;;26.95;14.65
69219;BME280;56232;53.384;-2.732;2023-05-03T09:37:59;102292.51;;;27.30;14.57
69219;BME280;56232;53.384;-2.732;2023-05-03T09:40:23;102286.67;;;26.89;14.22
69219;BME280;56232;53.384;-2.732;2023-05-03T09:45:22;102283.19;;;27.21;14.55
69219;BME280;56232;53.384;-2.732;2023-05-03T09:47:48;102283.11;;;27.17;14.75
69219;BME280;56232;53.384;-2.732;2023-05-03T09:50:06;102289.56;;;27.27;14.77
69219;BME280;56232;53.384;-2.732;2023-05-03T09:52:30;102280.47;;;27.25;14.95
69219;BME280;56232;53.384;-2.732;2023-05-03T09:54:56;102283.21;;;27.35;14.18
69219;BME280;56232;53.384;-2.732;2023-05-03T09:57:21;102283.38;;;26.72;14.72
69219;BME280;56232;53.384;-2.732;2023-05-03T09:59:47;102286.34;;;26.54;14.86
69219;BME280;56232;53.384;-2.732;2023-05-03T10:02:13;102284.99;;;26.85;14.66
69219;BME280;56232;53.384;-2.732;2023-05-03T10:04:42;102282.52;;;26.56;15.18
69219;BME280;56232;53.384;-2.732;2023-05-03T10:07:07;102286.10;;;25.96;15.17
69219;BME280;56232;53.384;-2.732;2023-05-03T10:09:33;102279.02;;;24.83;16.08
69219;BME280;56232;53.384;-2.732;2023-05-03T10:11:58;102280.25;;;24.15;16.50
69219;BME280;56232;53.384;-2.732;2023-05-03T10:14:20;102284.79;;;23.97;16.73
69219;BME280;56232;53.384;-2.732;2023-05-03T10:16:48;102284.00;;;23.60;16.77
69219;BME280;56232;53.384;-2.732;2023-05-03T10:19:14;102289.94;;;23.49;17.29
69219;BME280;56232;53.384;-2.732;2023-05-03T10:21:46;102284.78;;;23.58;17.57
69219;BME280;56232;53.384;-2.732;2023-05-03T10:24:08;102282.23;;;23.63;17.17
69219;BME280;56232;53.384;-2.732;2023-05-03T10:26:27;102276.80;;;23.35;17.21
69219;BME280;56232;53.384;-2.732;2023-05-03T10:28:53;102274.02;;;22.82;17.41
69219;BME280;56232;53.384;-2.732;2023-05-03T10:33:44;102269.50;;;23.65;17.21
69219;BME280;56232;53.384;-2.732;2023-05-03T10:36:12;102272.04;;;23.44;16.90
69219;BME280;56232;53.384;-2.732;2023-05-03T10:38:36;102263.83;;;24.98;16.92
69219;BME280;56232;53.384;-2.732;2023-05-03T10:41:00;102258.71;;;25.61;16.56
69219;BME280;56232;53.384;-2.732;2023-05-03T10:45:52;102251.36;;;24.55;16.84
69219;BME280;56232;53.384;-2.732;2023-05-03T10:48:17;102248.29;;;25.33;16.84
69219;BME280;56232;53.384;-2.732;2023-05-03T10:50:43;102237.63;;;24.00;17.93
69219;BME280;56232;53.384;-2.732;2023-05-03T10:55:34;102241.22;;;22.42;19.10
69219;BME280;56232;53.384;-2.732;2023-05-03T10:58:01;102239.68;;;21.93;19.16
69219;BME280;56232;53.384;-2.732;2023-05-03T11:00:32;102243.14;;;21.37;19.36
69219;BME280;56232;53.384;-2.732;2023-05-03T11:03:03;102235.85;;;20.53;19.80
69219;BME280;56232;53.384;-2.732;2023-05-03T11:05:17;102238.43;;;20.72;19.75
69219;BME280;56232;53.384;-2.732;2023-05-03T11:07:42;102236.77;;;21.03;20.39
69219;BME280;56232;53.384;-2.732;2023-05-03T11:10:15;102231.71;;;20.59;20.79
69219;BME280;56232;53.384;-2.732;2023-05-03T11:12:33;102235.89;;;19.67;20.91
69219;BME280;56232;53.384;-2.732;2023-05-03T11:15:04;102230.09;;;20.24;20.61
69219;BME280;56232;53.384;-2.732;2023-05-03T11:17:24;102232.55;;;20.09;20.69
69219;BME280;56232;53.384;-2.732;2023-05-03T11:19:49;102226.31;;;20.24;21.01
69219;BME280;56232;53.384;-2.732;2023-05-03T11:22:15;102226.75;;;21.09;20.87
69219;BME280;56232;53.384;-2.732;2023-05-03T11:24:41;102223.75;;;20.94;20.28
69219;BME280;56232;53.384;-2.732;2023-05-03T11:27:10;102218.81;;;21.03;20.18
69219;BME280;56232;53.384;-2.732;2023-05-03T11:29:32;102221.01;;;21.36;20.18
69219;BME280;56232;53.384;-2.732;2023-05-03T11:31:58;102219.22;;;20.82;19.88
69219;BME280;56232;53.384;-2.732;2023-05-03T11:34:23;102216.08;;;21.25;20.16
69219;BME280;56232;53.384;-2.732;2023-05-03T11:36:49;102215.62;;;20.86;20.28
69219;BME280;56232;53.384;-2.732;2023-05-03T11:39:14;102215.42;;;20.33;20.21
69219;BME280;56232;53.384;-2.732;2023-05-03T11:41:39;102209.91;;;20.73;20.34
69219;BME280;56232;53.384;-2.732;2023-05-03T11:44:06;102211.15;;;20.37;20.41
69219;BME280;56232;53.384;-2.732;2023-05-03T11:46:34;102205.79;;;20.62;20.14
69219;BME280;56232;53.384;-2.732;2023-05-03T11:48:56;102201.32;;;20.42;20.29
69219;BME280;56232;53.384;-2.732;2023-05-03T11:51:23;102192.97;;;20.30;20.42
69219;BME280;56232;53.384;-2.732;2023-05-03T11:53:48;102188.67;;;19.97;20.51
69219;BME280;56232;53.384;-2.732;2023-05-03T11:56:14;102189.57;;;20.74;20.02
69219;BME280;56232;53.384;-2.732;2023-05-03T12:01:04;102185.05;;;20.10;20.30
69219;BME280;56232;53.384;-2.732;2023-05-03T12:03:29;102180.88;;;20.12;20.38
69219;BME280;56232;53.384;-2.732;2023-05-03T12:05:55;102177.71;;;20.52;20.13
69219;BME280;56232;53.384;-2.732;2023-05-03T12:08:26;102179.86;;;20.47;20.18
69219;BME280;56232;53.384;-2.732;2023-05-03T12:10:47;102174.37;;;20.17;19.86
69219;BME280;56232;53.384;-2.732;2023-05-03T12:13:12;102164.01;;;20.07;20.14
69219;BME280;56232;53.384;-2.732;2023-05-03T12:15:38;102161.68;;;20.37;20.18
69219;BME280;56232;53.384;-2.732;2023-05-03T12:18:04;102161.57;;;20.87;20.01
69219;BME280;56232;53.384;-2.732;2023-05-03T12:20:29;102156.42;;;21.13;19.96
69219;BME280;56232;53.384;-2.732;2023-05-03T12:22:56;102154.47;;;21.40;19.56
69219;BME280;56232;53.384;-2.732;2023-05-03T12:25:20;102152.26;;;21.04;19.42
69219;BME280;56232;53.384;-2.732;2023-05-03T12:27:45;102149.72;;;20.88;19.55
69219;BME280;56232;53.384;-2.732;2023-05-03T12:30:11;102143.76;;;20.14;20.00
69219;BME280;56232;53.384;-2.732;2023-05-03T12:32:36;102143.78;;;20.68;19.76
69219;BME280;56232;53.384;-2.732;2023-05-03T12:35:02;102144.36;;;22.10;19.41
69219;BME280;56232;53.384;-2.732;2023-05-03T12:37:28;102139.61;;;21.11;19.00
69219;BME280;56232;53.384;-2.732;2023-05-03T12:39:53;102144.13;;;21.25;19.34
69219;BME280;56232;53.384;-2.732;2023-05-03T12:42:18;102139.83;;;21.62;19.17
69219;BME280;56232;53.384;-2.732;2023-05-03T12:44:44;102151.16;;;21.67;18.75